Time;durP1;ratioP1;P1;durP2;ratioP2;P2;SDS_P1;SDS_P2;PMS_P1;PMS_P2;Temp;Humidity;BMP_temperature;BMP_pressure;BME280_temperature;BME280_humidity;BME280_pressure;Samples;Min_cycle;Max_cycle;Signal;HPM_P1;HPM_P2
2021/11/19 12:49:42;;;;;;;16.73;2.60;;;;;;;;;;6221199;22;20008;-96
2021/11/19 12:52:41;;;;;;;11.70;2.65;;;;;;;;;;6272203;22;20008;-96
2021/11/19 12:55:29;;;;;;;14.27;1.77;;;;;;;;;;6271253;22;20015;-94
2021/11/19 12:58:32;;;;;;;13.10;2.40;;;;;;;;;;6269146;23;20027;-95
2021/11/19 13:01:13;;;;;;;12.75;2.10;;;;;;;;;;6274832;23;20024;-94
2021/11/19 13:17:44;;;;;;;11.00;2.13;;;;;;;;;;6273689;22;20019;-95
2021/11/19 13:20:31;;;;;;;9.13;1.77;;;;;;;;;;6273249;22;20004;-94
2021/11/19 13:23:24;;;;;;;11.55;2.10;;;;;;;;;;6273343;22;20012;-95
2021/11/19 13:26:18;;;;;;;16.00;2.45;;;;;;;;;;6273299;22;20015;-95
2021/11/19 13:28:46;;;;;;;6.57;1.43;;;;;;;;;;6273098;22;20008;-95
2021/11/19 14:58:27;;;;;;;8.15;1.88;;;;;;;;;;6270502;22;20136;-94
2021/11/19 15:04:32;;;;;;;11.55;1.80;;;;;;;;;;6268638;22;20023;-94
2021/11/19 15:07:07;;;;;;;7.57;1.50;;;;;;;;;;6268636;23;20038;-95
2021/11/19 15:09:53;;;;;;;11.73;1.55;;;;;;;;;;6269436;22;20031;-94
2021/11/19 15:12:28;;;;;;;11.98;2.17;;;;;;;;;;6270252;22;20012;-94
2021/11/19 15:15:05;;;;;;;14.27;1.98;;;;;;;;;;6268438;22;20036;-95
2021/11/19 15:43:25;;;;;;;11.57;2.60;;;;;;;;;;6252349;22;20000;-93
2021/11/19 15:46:12;;;;;;;14.88;2.55;;;;;;;;;;6277067;22;20019;-93
2021/11/19 15:48:41;;;;;;;11.18;1.75;;;;;;;;;;6280667;22;20046;-93
2021/11/19 15:51:24;;;;;;;11.35;2.08;;;;;;;;;;6281715;22;20008;-94
2021/11/19 15:54:14;;;;;;;9.90;1.95;;;;;;;;;;6279381;22;20054;-94
2021/11/19 15:57:03;;;;;;;18.48;2.58;;;;;;;;;;6275895;22;20011;-93
2021/11/19 15:59:52;;;;;;;9.82;2.20;;;;;;;;;;6276154;22;20011;-94
2021/11/19 16:02:51;;;;;;;15.95;2.45;;;;;;;;;;6279808;22;20003;-94
2021/11/19 16:12:35;;;;;;;13.43;1.73;;;;;;;;;;6305532;22;20072;-95
2021/11/19 16:15:15;;;;;;;16.23;2.08;;;;;;;;;;6273388;22;20022;-94
2021/11/19 16:18:05;;;;;;;8.00;1.67;;;;;;;;;;6279176;22;20022;-94
2021/11/19 16:20:48;;;;;;;8.90;2.00;;;;;;;;;;6277911;22;20012;-94
2021/11/19 16:23:17;;;;;;;12.20;1.85;;;;;;;;;;6277837;22;20018;-94
2021/11/19 16:25:56;;;;;;;12.90;2.30;;;;;;;;;;6278570;22;20045;-94
2021/11/19 16:28:24;;;;;;;;;;;;;;;;;;6277918;22;20026;-94
2021/11/19 16:30:56;;;;;;;6.32;1.73;;;;;;;;;;6276904;22;19930;-94
2021/11/19 16:33:24;;;;;;;14.35;2.40;;;;;;;;;;6276082;22;20038;-95
2021/11/19 16:35:53;;;;;;;10.23;1.92;;;;;;;;;;6276869;22;20011;-95
2021/11/19 16:38:51;;;;;;;10.75;1.85;;;;;;;;;;6277863;22;20004;-94
2021/11/19 16:41:20;;;;;;;11.10;2.27;;;;;;;;;;6277336;22;20012;-95
2021/11/19 16:43:50;;;;;;;12.43;2.22;;;;;;;;;;6276884;22;20015;-95
2021/11/19 16:56:49;;;;;;;14.95;2.17;;;;;;;;;;6303164;22;20075;-95
2021/11/19 16:59:17;;;;;;;8.35;1.90;;;;;;;;;;6277638;22;20063;-94
2021/11/19 17:02:23;;;;;;;13.75;2.55;;;;;;;;;;6276576;22;20063;-96
2021/11/19 17:05:04;;;;;;;8.27;2.10;;;;;;;;;;6274066;22;20020;-95
2021/11/19 17:11:01;;;;;;;13.65;2.97;;;;;;;;;;6295492;22;20400;-94
2021/11/19 17:13:30;;;;;;;8.10;2.28;;;;;;;;;;6270806;22;20087;-94
2021/11/19 17:15:59;;;;;;;14.57;2.20;;;;;;;;;;6271602;22;20073;-94
2021/11/19 17:18:32;;;;;;;10.75;2.20;;;;;;;;;;6274417;22;20011;-94
2021/11/19 17:21:05;;;;;;;18.35;2.65;;;;;;;;;;6276294;22;20022;-94
2021/11/19 17:23:59;;;;;;;14.90;2.75;;;;;;;;;;6277011;22;20073;-94
2021/11/19 17:26:30;;;;;;;12.93;2.72;;;;;;;;;;6274809;22;20043;-92
2021/11/19 17:28:59;;;;;;;12.20;2.33;;;;;;;;;;6270692;22;20019;-93
2021/11/19 17:31:35;;;;;;;10.57;2.50;;;;;;;;;;6268924;22;20019;-93
2021/11/19 17:34:17;;;;;;;13.50;1.88;;;;;;;;;;6271033;22;20019;-94
2021/11/19 17:36:46;;;;;;;13.43;3.78;;;;;;;;;;6272903;22;20007;-93
2021/11/19 17:39:16;;;;;;;10.00;2.30;;;;;;;;;;6272900;22;20034;-94
2021/11/19 17:41:45;;;;;;;15.73;2.67;;;;;;;;;;6271882;22;20030;-93
2021/11/19 17:47:51;;;;;;;14.30;2.40;;;;;;;;;;6295941;22;20042;-92
2021/11/19 17:50:19;;;;;;;17.52;3.03;;;;;;;;;;6268857;22;20035;-92
2021/11/19 17:52:50;;;;;;;14.80;2.72;;;;;;;;;;6266641;22;20027;-93
2021/11/19 17:55:22;;;;;;;13.20;2.22;;;;;;;;;;6265521;22;20021;-94
2021/11/19 17:57:51;;;;;;;17.40;2.88;;;;;;;;;;6269155;22;20050;-94
2021/11/19 18:00:31;;;;;;;16.67;2.78;;;;;;;;;;6274025;22;20224;-93
2021/11/19 18:03:00;;;;;;;12.15;2.70;;;;;;;;;;6300538;22;20026;-94
2021/11/19 18:05:39;;;;;;;12.73;2.83;;;;;;;;;;6276996;22;20020;-95
2021/11/19 18:08:09;;;;;;;15.73;3.25;;;;;;;;;;6274795;22;20023;-94
2021/11/19 18:10:42;;;;;;;16.77;2.90;;;;;;;;;;6274031;22;20007;-94
2021/11/19 18:13:11;;;;;;;20.42;3.53;;;;;;;;;;6272653;22;20019;-93
2021/11/19 18:15:46;;;;;;;11.88;3.13;;;;;;;;;;6272610;22;20007;-94
2021/11/19 18:18:18;;;;;;;18.55;3.67;;;;;;;;;;6274127;22;20028;-93
2021/11/19 18:21:01;;;;;;;22.58;3.25;;;;;;;;;;6275709;22;20035;-93
2021/11/19 18:23:43;;;;;;;15.73;2.80;;;;;;;;;;6276087;22;20011;-94
2021/11/19 18:26:24;;;;;;;19.35;3.15;;;;;;;;;;6274346;22;20038;-94
2021/11/19 18:29:07;;;;;;;18.48;3.78;;;;;;;;;;6277159;22;20011;-93
2021/11/19 18:31:40;;;;;;;15.52;3.72;;;;;;;;;;6275678;22;20031;-94
2021/11/19 18:34:22;;;;;;;16.67;3.65;;;;;;;;;;6297404;22;20023;-94
2021/11/19 18:36:51;;;;;;;12.15;3.50;;;;;;;;;;6274492;22;20031;-94
2021/11/19 18:39:22;;;;;;;16.60;4.57;;;;;;;;;;6301407;22;20065;-93
2021/11/19 18:41:56;;;;;;;18.25;3.53;;;;;;;;;;6277098;22;20025;-94
2021/11/19 18:44:24;;;;;;;20.50;4.40;;;;;;;;;;6269691;22;20031;-94
2021/11/19 18:46:55;;;;;;;17.80;3.80;;;;;;;;;;6270105;22;20024;-94
2021/11/19 18:49:25;;;;;;;16.20;3.47;;;;;;;;;;6245393;22;20016;-95
2021/11/19 18:52:04;;;;;;;14.65;3.15;;;;;;;;;;6270585;22;20060;-95
2021/11/19 18:54:40;;;;;;;25.23;3.40;;;;;;;;;;6269994;22;20087;-93
2021/11/19 18:57:23;;;;;;;20.52;3.70;;;;;;;;;;6268805;22;20035;-95
2021/11/19 18:59:55;;;;;;;16.20;4.10;;;;;;;;;;6272510;22;20004;-95
2021/11/19 19:12:23;;;;;;;22.13;4.25;;;;;;;;;;6267831;22;20038;-95
2021/11/19 19:14:52;;;;;;;25.02;3.90;;;;;;;;;;6268075;23;20032;-94
2021/11/19 19:17:40;;;;;;;15.82;3.38;;;;;;;;;;6269793;22;20055;-95
2021/11/19 19:20:11;;;;;;;26.85;4.15;;;;;;;;;;6268544;22;20024;-94
2021/11/19 19:22:46;;;;;;;20.13;5.40;;;;;;;;;;6243035;23;20030;-94
2021/11/19 19:25:34;;;;;;;17.75;3.92;;;;;;;;;;6264882;22;20024;-94
2021/11/19 19:28:06;;;;;;;19.13;4.85;;;;;;;;;;6270422;22;20023;-94
2021/11/19 19:30:58;;;;;;;12.98;3.45;;;;;;;;;;6262209;22;20023;-95
2021/11/19 19:33:39;;;;;;;21.73;4.43;;;;;;;;;;6268619;22;20012;-94
2021/11/19 19:36:12;;;;;;;24.08;3.97;;;;;;;;;;6271541;22;20024;-94
2021/11/19 19:42:14;;;;;;;19.63;4.47;;;;;;;;;;6270141;22;20022;-93
2021/11/19 19:44:41;;;;;;;21.85;4.43;;;;;;;;;;6267542;22;20283;-94
2021/11/19 19:47:11;;;;;;;16.10;4.70;;;;;;;;;;6268086;23;20046;-94
2021/11/19 19:49:39;;;;;;;18.33;4.43;;;;;;;;;;6268983;22;20067;-94
2021/11/19 19:52:07;;;;;;;16.15;4.15;;;;;;;;;;6269275;22;20020;-94
2021/11/19 19:54:39;;;;;;;14.55;4.50;;;;;;;;;;6267853;23;20067;-94
2021/11/19 19:57:41;;;;;;;25.77;5.35;;;;;;;;;;6268167;23;20018;-94
2021/11/19 20:00:12;;;;;;;22.80;4.75;;;;;;;;;;6270042;22;20024;-94
2021/11/19 20:02:44;;;;;;;15.15;4.88;;;;;;;;;;6270507;22;20031;-94
2021/11/19 20:05:15;;;;;;;18.02;4.97;;;;;;;;;;6269742;22;20016;-95
2021/11/19 20:07:46;;;;;;;22.90;5.60;;;;;;;;;;6268595;23;20069;-95
2021/11/19 20:10:14;;;;;;;25.48;5.47;;;;;;;;;;6268818;23;20024;-93
2021/11/19 20:12:44;;;;;;;21.88;6.43;;;;;;;;;;6269416;22;20039;-93
2021/11/19 20:15:15;;;;;;;12.95;5.07;;;;;;;;;;6268940;23;20024;-94
2021/11/19 20:18:21;;;;;;;19.25;5.43;;;;;;;;;;6269340;22;20035;-94
2021/11/19 20:21:09;;;;;;;28.38;6.78;;;;;;;;;;6269345;22;20012;-94
2021/11/19 20:23:55;;;;;;;17.05;5.32;;;;;;;;;;6271613;22;20162;-94
2021/11/19 20:26:33;;;;;;;25.25;6.05;;;;;;;;;;6270754;22;20027;-95
2021/11/19 20:29:01;;;;;;;;;;;;;;;;;;6271585;22;20016;-94
2021/11/19 20:31:53;;;;;;;25.30;4.90;;;;;;;;;;6270643;22;19927;-93
2021/11/19 20:34:26;;;;;;;18.33;4.65;;;;;;;;;;6270806;22;20084;-94
2021/11/19 20:36:55;;;;;;;26.10;5.20;;;;;;;;;;6270566;22;20050;-93
2021/11/19 20:39:30;;;;;;;20.63;4.90;;;;;;;;;;6268986;23;20078;-93
2021/11/19 20:42:03;;;;;;;20.33;5.30;;;;;;;;;;6269381;22;20091;-94
2021/11/19 20:45:00;;;;;;;18.80;4.63;;;;;;;;;;6268861;23;20083;-94
2021/11/19 20:47:35;;;;;;;17.02;5.07;;;;;;;;;;6269699;22;20055;-94
2021/11/19 20:50:17;;;;;;;22.42;5.72;;;;;;;;;;6269949;22;20019;-94
2021/11/19 20:53:01;;;;;;;22.73;5.28;;;;;;;;;;6269025;22;20019;-94
2021/11/19 20:55:50;;;;;;;20.27;5.72;;;;;;;;;;6270760;22;20020;-95
2021/11/19 20:58:23;;;;;;;21.00;5.38;;;;;;;;;;6270143;22;20032;-94
2021/11/19 21:01:25;;;;;;;22.05;5.53;;;;;;;;;;6272720;22;20004;-94
2021/11/19 21:03:55;;;;;;;25.38;5.65;;;;;;;;;;6272260;22;20031;-94
2021/11/19 21:06:24;;;;;;;19.88;5.20;;;;;;;;;;6272029;22;20023;-94
2021/11/19 21:09:39;;;;;;;22.17;6.07;;;;;;;;;;6270271;22;20008;-93
2021/11/19 21:12:09;;;;;;;25.08;6.00;;;;;;;;;;6271879;22;20004;-93
2021/11/19 21:14:47;;;;;;;26.75;6.90;;;;;;;;;;6238580;22;20063;-94
2021/11/19 21:17:14;;;;;;;24.25;5.05;;;;;;;;;;6241380;22;20009;-94
2021/11/19 21:19:47;;;;;;;17.85;4.93;;;;;;;;;;6241205;22;20095;-95
2021/11/19 21:22:25;;;;;;;18.75;4.97;;;;;;;;;;6241435;22;20201;-94
2021/11/19 21:25:03;;;;;;;28.23;5.35;;;;;;;;;;6240408;22;20017;-94
2021/11/19 21:27:36;;;;;;;26.88;5.45;;;;;;;;;;6242289;22;20015;-94
2021/11/19 21:30:08;;;;;;;21.80;6.03;;;;;;;;;;6242074;22;20013;-94
2021/11/19 21:32:37;;;;;;;21.95;5.72;;;;;;;;;;6241079;22;20043;-93
2021/11/19 21:35:06;;;;;;;23.08;5.10;;;;;;;;;;6240961;22;20028;-94
2021/11/19 21:37:37;;;;;;;19.80;6.03;;;;;;;;;;6241531;22;20024;-95
2021/11/19 21:40:19;;;;;;;26.33;6.72;;;;;;;;;;6241077;22;20048;-95
2021/11/19 21:43:24;;;;;;;21.35;5.75;;;;;;;;;;6240826;22;20009;-95
2021/11/19 21:45:54;;;;;;;25.00;6.40;;;;;;;;;;6241023;22;20020;-94
2021/11/19 21:48:21;;;;;;;29.30;5.90;;;;;;;;;;6261424;22;20018;-94
2021/11/19 21:50:52;;;;;;;36.63;9.18;;;;;;;;;;6271987;22;20024;-94
2021/11/19 21:53:28;;;;;;;23.65;6.72;;;;;;;;;;6271588;22;20024;-95
2021/11/19 21:56:10;;;;;;;22.67;6.05;;;;;;;;;;6271667;22;20012;-94
2021/11/19 21:58:40;;;;;;;30.73;6.82;;;;;;;;;;6272351;22;20076;-94
2021/11/19 22:01:11;;;;;;;31.17;7.47;;;;;;;;;;6271146;22;20080;-94
2021/11/19 22:03:39;;;;;;;31.70;7.20;;;;;;;;;;6271109;22;20075;-93
2021/11/19 22:06:23;;;;;;;22.13;6.53;;;;;;;;;;6269919;22;20012;-95
2021/11/19 22:08:50;;;;;;;30.05;6.63;;;;;;;;;;6267173;22;20012;-94
2021/11/19 22:11:58;;;;;;;38.60;8.38;;;;;;;;;;6271019;23;20083;-94
2021/11/19 22:14:26;;;;;;;23.42;6.10;;;;;;;;;;6272894;23;20020;-94
2021/11/19 22:16:54;;;;;;;26.00;6.63;;;;;;;;;;6271701;22;20012;-94
2021/11/19 22:22:47;;;;;;;37.63;7.25;;;;;;;;;;6272406;22;20018;-94
2021/11/19 22:25:15;;;;;;;26.90;7.00;;;;;;;;;;6271121;22;20009;-94
2021/11/19 22:27:43;;;;;;;37.65;8.35;;;;;;;;;;6270453;22;20008;-93
2021/11/19 22:30:19;;;;;;;30.10;8.38;;;;;;;;;;6270531;22;20025;-93
2021/11/19 22:32:53;;;;;;;30.42;7.85;;;;;;;;;;6267802;23;20020;-95
2021/11/19 22:35:20;;;;;;;31.35;7.63;;;;;;;;;;6270345;22;20028;-94
2021/11/19 22:37:56;;;;;;;29.83;7.40;;;;;;;;;;6272907;22;20015;-93
2021/11/19 22:40:33;;;;;;;30.88;9.30;;;;;;;;;;6269324;22;20064;-94
2021/11/19 22:43:03;;;;;;;24.88;7.95;;;;;;;;;;6270360;22;20012;-94
2021/11/19 22:45:30;;;;;;;24.65;7.68;;;;;;;;;;6244044;23;20012;-94
2021/11/19 22:47:58;;;;;;;40.38;9.77;;;;;;;;;;6270461;22;20020;-94
2021/11/19 22:50:26;;;;;;;31.27;7.97;;;;;;;;;;6270310;23;20008;-94
2021/11/19 22:56:26;;;;;;;28.10;8.70;;;;;;;;;;6270714;23;20019;-94
2021/11/19 22:58:56;;;;;;;37.63;7.88;;;;;;;;;;6270255;23;20079;-96
2021/11/19 23:01:28;;;;;;;24.52;7.63;;;;;;;;;;6271446;22;20016;-95
2021/11/19 23:03:58;;;;;;;26.55;7.47;;;;;;;;;;6271147;23;20043;-94
2021/11/19 23:06:59;;;;;;;36.20;8.63;;;;;;;;;;6271773;22;20054;-94
2021/11/19 23:09:32;;;;;;;24.00;8.02;;;;;;;;;;6270896;22;20019;-94
2021/11/19 23:12:02;;;;;;;29.67;10.47;;;;;;;;;;6269987;23;20080;-94
2021/11/19 23:14:42;;;;;;;39.97;9.15;;;;;;;;;;6270462;23;20435;-95
2021/11/19 23:17:12;;;;;;;38.13;9.07;;;;;;;;;;6271725;22;20012;-94
2021/11/19 23:19:40;;;;;;;28.45;7.88;;;;;;;;;;6272303;22;20030;-94
2021/11/19 23:22:12;;;;;;;30.67;8.20;;;;;;;;;;6272400;22;20012;-95
2021/11/19 23:24:48;;;;;;;35.80;8.90;;;;;;;;;;6273372;22;20551;-94
2021/11/19 23:27:16;;;;;;;27.38;8.82;;;;;;;;;;6273309;22;20050;-94
2021/11/19 23:29:46;;;;;;;21.90;7.85;;;;;;;;;;6270753;22;20020;-95
2021/11/19 23:32:19;;;;;;;25.15;8.52;;;;;;;;;;6269088;23;20031;-94
2021/11/19 23:34:59;;;;;;;33.22;8.55;;;;;;;;;;6269899;23;20072;-94
2021/11/19 23:37:27;;;;;;;24.77;8.20;;;;;;;;;;6270223;22;20080;-94
2021/11/19 23:39:54;;;;;;;29.42;7.90;;;;;;;;;;6270611;22;20021;-94
2021/11/19 23:42:25;;;;;;;31.33;9.32;;;;;;;;;;6270362;22;20012;-94
2021/11/19 23:44:52;;;;;;;37.40;9.13;;;;;;;;;;6268907;23;20046;-94
2021/11/19 23:47:20;;;;;;;31.17;8.40;;;;;;;;;;6269410;23;20007;-94
2021/11/19 23:49:57;;;;;;;30.52;8.88;;;;;;;;;;6269416;22;20083;-94
2021/11/19 23:52:27;;;;;;;26.95;8.80;;;;;;;;;;6268586;23;20032;-94
2021/11/19 23:54:55;;;;;;;28.75;8.73;;;;;;;;;;6269977;22;20019;-94
2021/11/19 23:57:22;;;;;;;34.15;9.15;;;;;;;;;;6271344;22;20027;-95
